DLA9PM EDDM-LIMJ
Flight info
| Callsign | DLA9PM |
|---|---|
| Flight time | 1h 1m |
| Altitude | 37000 |
| Route | TURBU7S/26L TURBU Y107 TOBSO DCT BAKOR DCT OSKOR DCT MONEB |
| Aircraft | E195/M-SDE3GILORVW/S |
Departure
| Time | 2026-05-07 13:06 |
|---|---|
| Airport | Munich Airport (EDDM) |
Arrival
| Time | 2026-05-07 14:07 |
|---|---|
| Airport | Genoa Cristoforo Colombo Airport (LIMJ) |
| Time | Latitude | Longitude | Altitude | Speed | Heading |
|---|---|---|---|---|---|
| 2026-05-07 13:02 | 48.35117 | 11.79919 | 1484 ft | 2 kts | 259° |
| 2026-05-07 13:02 | 48.35117 | 11.79915 | 1474 ft | 0 kts | 263° |
| 2026-05-07 13:03 | 48.35115 | 11.79897 | 1484 ft | 5 kts | 263° |
| 2026-05-07 13:03 | 48.35109 | 11.79813 | 1484 ft | 12 kts | 264° |
| 2026-05-07 13:03 | 48.35089 | 11.79690 | 1484 ft | 13 kts | 233° |
| 2026-05-07 13:03 | 48.35006 | 11.79668 | 1479 ft | 13 kts | 173° |
| 2026-05-07 13:04 | 48.34932 | 11.79680 | 1484 ft | 4 kts | 173° |
| 2026-05-07 13:04 | 48.34907 | 11.79685 | 1484 ft | 5 kts | 173° |
| 2026-05-07 13:04 | 48.34854 | 11.79694 | 1474 ft | 11 kts | 174° |
| 2026-05-07 13:04 | 48.34761 | 11.79710 | 1484 ft | 16 kts | 176° |
| 2026-05-07 13:05 | 48.34663 | 11.79619 | 1484 ft | 19 kts | 232° |
| 2026-05-07 13:05 | 48.34571 | 11.79434 | 1484 ft | 25 kts | 233° |
| 2026-05-07 13:05 | 48.34462 | 11.79215 | 1484 ft | 27 kts | 233° |
| 2026-05-07 13:05 | 48.34370 | 11.78971 | 1484 ft | 27 kts | 252° |
| 2026-05-07 13:06 | 48.34334 | 11.78562 | 1472 ft | 71 kts | 263° |
| 2026-05-07 13:06 | 48.34251 | 11.77451 | 1485 ft | 143 kts | 263° |
| 2026-05-07 13:06 | 48.34105 | 11.75650 | 1798 ft | 190 kts | 263° |
| 2026-05-07 13:06 | 48.33929 | 11.73546 | 2527 ft | 220 kts | 264° |
| 2026-05-07 13:07 | 48.33502 | 11.71363 | 2489 ft | 220 kts | 238° |
| 2026-05-07 13:07 | 48.32362 | 11.69987 | 2458 ft | 203 kts | 206° |
| 2026-05-07 13:07 | 48.30995 | 11.69483 | 2241 ft | 201 kts | 183° |
| 2026-05-07 13:07 | 48.29646 | 11.69516 | 2217 ft | 194 kts | 169° |
| 2026-05-07 13:08 | 48.28464 | 11.70477 | 2057 ft | 193 kts | 139° |
| 2026-05-07 13:08 | 48.27481 | 11.71790 | 2116 ft | 189 kts | 141° |
| 2026-05-07 13:08 | 48.26462 | 11.73037 | 2188 ft | 189 kts | 141° |
| 2026-05-07 13:08 | 48.25445 | 11.74300 | 2274 ft | 190 kts | 141° |
| 2026-05-07 13:09 | 48.24435 | 11.75578 | 2368 ft | 191 kts | 140° |
| 2026-05-07 13:09 | 48.23427 | 11.76863 | 2661 ft | 188 kts | 140° |
| 2026-05-07 13:09 | 48.22436 | 11.78154 | 3452 ft | 191 kts | 139° |
| 2026-05-07 13:09 | 48.21410 | 11.79490 | 4147 ft | 203 kts | 140° |
| 2026-05-07 13:10 | 48.20291 | 11.80953 | 4750 ft | 219 kts | 140° |
| 2026-05-07 13:10 | 48.19111 | 11.82497 | 5502 ft | 229 kts | 140° |
| 2026-05-07 13:10 | 48.17899 | 11.84091 | 6324 ft | 234 kts | 140° |
| 2026-05-07 13:10 | 48.16642 | 11.85661 | 7124 ft | 237 kts | 150° |
| 2026-05-07 13:11 | 48.15074 | 11.86248 | 7872 ft | 236 kts | 188° |
| 2026-05-07 13:11 | 48.13482 | 11.85706 | 8665 ft | 236 kts | 192° |
| 2026-05-07 13:11 | 48.11826 | 11.85728 | 9410 ft | 242 kts | 170° |
| 2026-05-07 13:11 | 48.10177 | 11.86288 | 10198 ft | 244 kts | 168° |
| 2026-05-07 13:12 | 48.08539 | 11.86877 | 10974 ft | 246 kts | 167° |
| 2026-05-07 13:12 | 48.06882 | 11.87556 | 11754 ft | 248 kts | 166° |
| 2026-05-07 13:12 | 48.05228 | 11.88275 | 12521 ft | 251 kts | 165° |
| 2026-05-07 13:12 | 48.03534 | 11.89044 | 13214 ft | 257 kts | 165° |
| 2026-05-07 13:13 | 48.01821 | 11.89848 | 13977 ft | 259 kts | 165° |
| 2026-05-07 13:13 | 48.00098 | 11.90667 | 14765 ft | 260 kts | 164° |
| 2026-05-07 13:13 | 47.98373 | 11.91499 | 15546 ft | 261 kts | 165° |
| 2026-05-07 13:13 | 47.96640 | 11.92337 | 16299 ft | 262 kts | 165° |
| 2026-05-07 13:14 | 47.94895 | 11.93188 | 17005 ft | 265 kts | 165° |
| 2026-05-07 13:14 | 47.93158 | 11.94033 | 17669 ft | 267 kts | 165° |
| 2026-05-07 13:14 | 47.91358 | 11.94748 | 18304 ft | 268 kts | 175° |
| 2026-05-07 13:14 | 47.89500 | 11.94802 | 18932 ft | 268 kts | 186° |
| 2026-05-07 13:15 | 47.87636 | 11.94613 | 19552 ft | 270 kts | 186° |
| 2026-05-07 13:15 | 47.85754 | 11.94434 | 20148 ft | 272 kts | 186° |
| 2026-05-07 13:15 | 47.83854 | 11.94248 | 20731 ft | 274 kts | 186° |
| 2026-05-07 13:15 | 47.81887 | 11.94054 | 20873 ft | 295 kts | 186° |
| 2026-05-07 13:16 | 47.80472 | 11.93903 | 20980 ft | 307 kts | 186° |
| 2026-05-07 13:16 | 47.78278 | 11.93682 | 21192 ft | 324 kts | 186° |
| 2026-05-07 13:16 | 47.75974 | 11.93447 | 21399 ft | 340 kts | 186° |
| 2026-05-07 13:16 | 47.73548 | 11.93201 | 21516 ft | 359 kts | 186° |
| 2026-05-07 13:17 | 47.71016 | 11.92942 | 21582 ft | 377 kts | 186° |
| 2026-05-07 13:17 | 47.68338 | 11.92668 | 21683 ft | 394 kts | 185° |
| 2026-05-07 13:17 | 47.65570 | 11.92393 | 22046 ft | 402 kts | 185° |
| 2026-05-07 13:17 | 47.62769 | 11.92121 | 22568 ft | 405 kts | 185° |
| 2026-05-07 13:18 | 47.59949 | 11.91838 | 23168 ft | 407 kts | 185° |
| 2026-05-07 13:18 | 47.57114 | 11.91561 | 23783 ft | 409 kts | 185° |
| 2026-05-07 13:18 | 47.54270 | 11.91280 | 24391 ft | 411 kts | 185° |
| 2026-05-07 13:18 | 47.51404 | 11.90996 | 24961 ft | 414 kts | 185° |
| 2026-05-07 13:19 | 47.48515 | 11.90709 | 25505 ft | 417 kts | 185° |
| 2026-05-07 13:19 | 47.45608 | 11.90418 | 26020 ft | 420 kts | 185° |
| 2026-05-07 13:19 | 47.42684 | 11.90123 | 26497 ft | 423 kts | 185° |
| 2026-05-07 13:19 | 47.39739 | 11.89835 | 26962 ft | 426 kts | 185° |
| 2026-05-07 13:20 | 47.36769 | 11.89533 | 27366 ft | 429 kts | 186° |
| 2026-05-07 13:20 | 47.33785 | 11.89235 | 27798 ft | 431 kts | 186° |
| 2026-05-07 13:20 | 47.30785 | 11.88931 | 28198 ft | 434 kts | 186° |
| 2026-05-07 13:20 | 47.27760 | 11.88628 | 28589 ft | 436 kts | 186° |
| 2026-05-07 13:21 | 47.24726 | 11.88321 | 28968 ft | 438 kts | 186° |
| 2026-05-07 13:21 | 47.21676 | 11.88015 | 29382 ft | 439 kts | 186° |
| 2026-05-07 13:21 | 47.18637 | 11.87709 | 29900 ft | 437 kts | 186° |
| 2026-05-07 13:21 | 47.15606 | 11.87405 | 30416 ft | 435 kts | 186° |
| 2026-05-07 13:22 | 47.12585 | 11.87100 | 30858 ft | 435 kts | 186° |
| 2026-05-07 13:22 | 47.09565 | 11.86795 | 31274 ft | 435 kts | 186° |
| 2026-05-07 13:22 | 47.06549 | 11.86491 | 31673 ft | 434 kts | 186° |
| 2026-05-07 13:22 | 47.03538 | 11.86186 | 32023 ft | 435 kts | 186° |
| 2026-05-07 13:23 | 47.00545 | 11.85665 | 32377 ft | 432 kts | 192° |
| 2026-05-07 13:23 | 46.97648 | 11.84763 | 32710 ft | 431 kts | 194° |
| 2026-05-07 13:23 | 46.94681 | 11.83795 | 33042 ft | 431 kts | 194° |
| 2026-05-07 13:23 | 46.91757 | 11.82843 | 33341 ft | 431 kts | 194° |
| 2026-05-07 13:24 | 46.88867 | 11.81912 | 33657 ft | 430 kts | 194° |
| 2026-05-07 13:24 | 46.85947 | 11.80971 | 33953 ft | 430 kts | 194° |
| 2026-05-07 13:24 | 46.83022 | 11.80038 | 34277 ft | 429 kts | 194° |
| 2026-05-07 13:24 | 46.80106 | 11.79105 | 34552 ft | 429 kts | 194° |
| 2026-05-07 13:25 | 46.77185 | 11.78172 | 34767 ft | 430 kts | 194° |
| 2026-05-07 13:25 | 46.74256 | 11.77236 | 35035 ft | 430 kts | 194° |
| 2026-05-07 13:25 | 46.71338 | 11.76306 | 35280 ft | 430 kts | 194° |
| 2026-05-07 13:25 | 46.68417 | 11.75372 | 35523 ft | 430 kts | 194° |
| 2026-05-07 13:26 | 46.65496 | 11.74443 | 35759 ft | 430 kts | 194° |
| 2026-05-07 13:26 | 46.62627 | 11.73252 | 35939 ft | 428 kts | 205° |
| 2026-05-07 13:26 | 46.60082 | 11.71058 | 36107 ft | 426 kts | 221° |
| 2026-05-07 13:26 | 46.58030 | 11.67972 | 36331 ft | 425 kts | 230° |
| 2026-05-07 13:27 | 46.56115 | 11.64689 | 36510 ft | 426 kts | 230° |
| 2026-05-07 13:27 | 46.54203 | 11.61408 | 36759 ft | 424 kts | 230° |
| 2026-05-07 13:27 | 46.52329 | 11.58142 | 37123 ft | 421 kts | 230° |
| 2026-05-07 13:27 | 46.50452 | 11.54916 | 36932 ft | 420 kts | 229° |
| 2026-05-07 13:28 | 46.46678 | 11.48463 | 36941 ft | 419 kts | 230° |
| 2026-05-07 13:28 | 46.42911 | 11.42020 | 36937 ft | 419 kts | 230° |
| 2026-05-07 13:29 | 46.39136 | 11.35583 | 36938 ft | 419 kts | 230° |
| 2026-05-07 13:29 | 46.35355 | 11.29154 | 36930 ft | 419 kts | 230° |
| 2026-05-07 13:30 | 46.31573 | 11.22740 | 36961 ft | 419 kts | 230° |
| 2026-05-07 13:30 | 46.27779 | 11.16319 | 36975 ft | 419 kts | 230° |
| 2026-05-07 13:31 | 46.23982 | 11.09908 | 36990 ft | 420 kts | 230° |
| 2026-05-07 13:31 | 46.20193 | 11.03524 | 37002 ft | 421 kts | 230° |
| 2026-05-07 13:32 | 46.16381 | 10.97114 | 36996 ft | 420 kts | 230° |
| 2026-05-07 13:32 | 46.12563 | 10.90712 | 36999 ft | 421 kts | 230° |
| 2026-05-07 13:33 | 46.08735 | 10.84308 | 37000 ft | 421 kts | 230° |
| 2026-05-07 13:33 | 46.04903 | 10.77907 | 37002 ft | 421 kts | 230° |
| 2026-05-07 13:34 | 45.99151 | 10.68327 | 36988 ft | 422 kts | 230° |
| 2026-05-07 13:35 | 45.95348 | 10.62011 | 36977 ft | 419 kts | 230° |
| 2026-05-07 13:35 | 45.91526 | 10.55672 | 36967 ft | 420 kts | 230° |
| 2026-05-07 13:36 | 45.87701 | 10.49338 | 36969 ft | 420 kts | 230° |
| 2026-05-07 13:36 | 45.83868 | 10.43006 | 36964 ft | 421 kts | 230° |
| 2026-05-07 13:37 | 45.80024 | 10.36669 | 36954 ft | 421 kts | 230° |
| 2026-05-07 13:37 | 45.76174 | 10.30344 | 36961 ft | 421 kts | 230° |
| 2026-05-07 13:38 | 45.72321 | 10.24028 | 36949 ft | 421 kts | 230° |
| 2026-05-07 13:38 | 45.68459 | 10.17707 | 36949 ft | 421 kts | 229° |
| 2026-05-07 13:39 | 45.64414 | 10.11658 | 36857 ft | 420 kts | 215° |
| 2026-05-07 13:39 | 45.61956 | 10.09471 | 37109 ft | 420 kts | 213° |
| 2026-05-07 13:39 | 45.59459 | 10.07281 | 36971 ft | 420 kts | 213° |
| 2026-05-07 13:40 | 45.54466 | 10.02928 | 36965 ft | 422 kts | 213° |
| 2026-05-07 13:40 | 45.49458 | 9.98580 | 36971 ft | 422 kts | 213° |
| 2026-05-07 13:41 | 45.44431 | 9.94231 | 36972 ft | 423 kts | 213° |
| 2026-05-07 13:41 | 45.39437 | 9.89920 | 36953 ft | 423 kts | 213° |
| 2026-05-07 13:42 | 45.34406 | 9.85587 | 36962 ft | 422 kts | 213° |
| 2026-05-07 13:42 | 45.29380 | 9.81269 | 36980 ft | 421 kts | 213° |
| 2026-05-07 13:43 | 45.24359 | 9.76963 | 36984 ft | 422 kts | 213° |
| 2026-05-07 13:43 | 45.19334 | 9.72663 | 36989 ft | 421 kts | 213° |
| 2026-05-07 13:43 | 45.16862 | 9.70552 | 36963 ft | 406 kts | 213° |
| 2026-05-07 13:44 | 45.14479 | 9.68519 | 36724 ft | 393 kts | 213° |
| 2026-05-07 13:44 | 45.12167 | 9.66544 | 36411 ft | 383 kts | 213° |
| 2026-05-07 13:44 | 45.09905 | 9.64613 | 35947 ft | 377 kts | 213° |
| 2026-05-07 13:44 | 45.07667 | 9.62702 | 35425 ft | 373 kts | 213° |
| 2026-05-07 13:45 | 45.05453 | 9.60814 | 34921 ft | 369 kts | 213° |
| 2026-05-07 13:45 | 45.03261 | 9.58946 | 34350 ft | 367 kts | 213° |
| 2026-05-07 13:45 | 45.01078 | 9.57086 | 33750 ft | 366 kts | 213° |
| 2026-05-07 13:45 | 44.98895 | 9.55228 | 33069 ft | 367 kts | 213° |
| 2026-05-07 13:46 | 44.96699 | 9.53374 | 32312 ft | 369 kts | 213° |
| 2026-05-07 13:46 | 44.94508 | 9.51530 | 31518 ft | 373 kts | 213° |
| 2026-05-07 13:46 | 44.92270 | 9.49645 | 30623 ft | 378 kts | 213° |
| 2026-05-07 13:46 | 44.89995 | 9.47733 | 29691 ft | 383 kts | 213° |
| 2026-05-07 13:47 | 44.87686 | 9.45794 | 28685 ft | 389 kts | 213° |
| 2026-05-07 13:47 | 44.85347 | 9.43830 | 27765 ft | 392 kts | 213° |
| 2026-05-07 13:47 | 44.82986 | 9.41847 | 26844 ft | 396 kts | 213° |
| 2026-05-07 13:47 | 44.80634 | 9.39873 | 26355 ft | 397 kts | 213° |
| 2026-05-07 13:48 | 44.78236 | 9.37860 | 25823 ft | 405 kts | 212° |
| 2026-05-07 13:48 | 44.75798 | 9.35816 | 25240 ft | 410 kts | 212° |
| 2026-05-07 13:48 | 44.73348 | 9.33763 | 24688 ft | 410 kts | 212° |
| 2026-05-07 13:48 | 44.70896 | 9.31708 | 23760 ft | 414 kts | 212° |
| 2026-05-07 13:49 | 44.68396 | 9.29618 | 22418 ft | 418 kts | 212° |
| 2026-05-07 13:49 | 44.65915 | 9.27550 | 20976 ft | 408 kts | 212° |
| 2026-05-07 13:49 | 44.63507 | 9.25542 | 19514 ft | 398 kts | 212° |
| 2026-05-07 13:49 | 44.61128 | 9.23569 | 18533 ft | 393 kts | 212° |
| 2026-05-07 13:50 | 44.58807 | 9.21671 | 18076 ft | 380 kts | 212° |
| 2026-05-07 13:50 | 44.56551 | 9.19814 | 17604 ft | 372 kts | 212° |
| 2026-05-07 13:50 | 44.54321 | 9.17984 | 17150 ft | 372 kts | 212° |
| 2026-05-07 13:50 | 44.52088 | 9.16148 | 16653 ft | 372 kts | 212° |
| 2026-05-07 13:51 | 44.49857 | 9.14317 | 16156 ft | 371 kts | 211° |
| 2026-05-07 13:51 | 44.47631 | 9.12493 | 15680 ft | 369 kts | 211° |
| 2026-05-07 13:51 | 44.45431 | 9.10687 | 15185 ft | 362 kts | 211° |
| 2026-05-07 13:51 | 44.43273 | 9.08974 | 14716 ft | 352 kts | 206° |
| 2026-05-07 13:52 | 44.40955 | 9.08034 | 14253 ft | 345 kts | 188° |
| 2026-05-07 13:52 | 44.38596 | 9.07732 | 13794 ft | 337 kts | 186° |
| 2026-05-07 13:52 | 44.36286 | 9.07427 | 13354 ft | 330 kts | 187° |
| 2026-05-07 13:52 | 44.34028 | 9.07119 | 12915 ft | 323 kts | 187° |
| 2026-05-07 13:53 | 44.31839 | 9.06815 | 12503 ft | 316 kts | 187° |
| 2026-05-07 13:53 | 44.29655 | 9.06906 | 11956 ft | 316 kts | 167° |
| 2026-05-07 13:53 | 44.27710 | 9.08271 | 11595 ft | 311 kts | 145° |
| 2026-05-07 13:53 | 44.26015 | 9.10097 | 11182 ft | 306 kts | 143° |
| 2026-05-07 13:54 | 44.24327 | 9.11874 | 10793 ft | 301 kts | 144° |
| 2026-05-07 13:54 | 44.22659 | 9.13611 | 10401 ft | 297 kts | 144° |
| 2026-05-07 13:54 | 44.21011 | 9.15314 | 10021 ft | 293 kts | 144° |
| 2026-05-07 13:54 | 44.19378 | 9.16992 | 9640 ft | 289 kts | 144° |
| 2026-05-07 13:55 | 44.17764 | 9.18640 | 9270 ft | 286 kts | 145° |
| 2026-05-07 13:55 | 44.16166 | 9.20265 | 8890 ft | 283 kts | 144° |
| 2026-05-07 13:55 | 44.14586 | 9.21869 | 8538 ft | 279 kts | 145° |
| 2026-05-07 13:55 | 44.13021 | 9.23446 | 8238 ft | 274 kts | 145° |
| 2026-05-07 13:56 | 44.11562 | 9.25077 | 8084 ft | 264 kts | 133° |
| 2026-05-07 13:56 | 44.10684 | 9.27229 | 8029 ft | 252 kts | 105° |
| 2026-05-07 13:56 | 44.10587 | 9.29605 | 7995 ft | 245 kts | 80° |
| 2026-05-07 13:56 | 44.11197 | 9.31751 | 8006 ft | 242 kts | 56° |
| 2026-05-07 13:57 | 44.12208 | 9.33628 | 8013 ft | 243 kts | 51° |
| 2026-05-07 13:57 | 44.13336 | 9.35387 | 7855 ft | 248 kts | 38° |
| 2026-05-07 13:57 | 44.14873 | 9.36372 | 7728 ft | 240 kts | 9° |
| 2026-05-07 13:57 | 44.16515 | 9.36374 | 7702 ft | 236 kts | 346° |
| 2026-05-07 13:58 | 44.17991 | 9.35437 | 7676 ft | 234 kts | 324° |
| 2026-05-07 13:58 | 44.19292 | 9.34061 | 7642 ft | 235 kts | 321° |
| 2026-05-07 13:58 | 44.20591 | 9.32663 | 7572 ft | 236 kts | 321° |
| 2026-05-07 13:58 | 44.21893 | 9.31272 | 7509 ft | 235 kts | 321° |
| 2026-05-07 13:59 | 44.23200 | 9.29890 | 7343 ft | 240 kts | 322° |
| 2026-05-07 13:59 | 44.24548 | 9.28427 | 6821 ft | 250 kts | 321° |
| 2026-05-07 13:59 | 44.25941 | 9.26912 | 6275 ft | 258 kts | 321° |
| 2026-05-07 13:59 | 44.27360 | 9.25388 | 5982 ft | 254 kts | 322° |
| 2026-05-07 14:00 | 44.28743 | 9.23942 | 5743 ft | 249 kts | 322° |
| 2026-05-07 14:00 | 44.30116 | 9.22510 | 5536 ft | 243 kts | 322° |
| 2026-05-07 14:00 | 44.31424 | 9.21110 | 5418 ft | 226 kts | 315° |
| 2026-05-07 14:00 | 44.32415 | 9.19539 | 5361 ft | 215 kts | 308° |
| 2026-05-07 14:01 | 44.33432 | 9.18034 | 5057 ft | 209 kts | 316° |
| 2026-05-07 14:01 | 44.34467 | 9.16715 | 4789 ft | 195 kts | 315° |
| 2026-05-07 14:01 | 44.35212 | 9.15193 | 4377 ft | 191 kts | 286° |
| 2026-05-07 14:01 | 44.35478 | 9.13404 | 4092 ft | 182 kts | 280° |
| 2026-05-07 14:02 | 44.35808 | 9.11758 | 3890 ft | 170 kts | 287° |
| 2026-05-07 14:02 | 44.36153 | 9.10220 | 3711 ft | 161 kts | 284° |
| 2026-05-07 14:02 | 44.36430 | 9.08729 | 3510 ft | 156 kts | 283° |
| 2026-05-07 14:02 | 44.36619 | 9.07773 | 3358 ft | 152 kts | 284° |
| 2026-05-07 14:03 | 44.36905 | 9.06368 | 3152 ft | 148 kts | 284° |
| 2026-05-07 14:03 | 44.37176 | 9.04999 | 3010 ft | 143 kts | 284° |
| 2026-05-07 14:03 | 44.37441 | 9.03659 | 2883 ft | 144 kts | 284° |
| 2026-05-07 14:03 | 44.37711 | 9.02299 | 2565 ft | 144 kts | 284° |
| 2026-05-07 14:04 | 44.37973 | 9.00977 | 2352 ft | 139 kts | 284° |
| 2026-05-07 14:04 | 44.38230 | 8.99676 | 2155 ft | 138 kts | 284° |
| 2026-05-07 14:04 | 44.38487 | 8.98378 | 1961 ft | 139 kts | 284° |
| 2026-05-07 14:04 | 44.38743 | 8.97083 | 1766 ft | 139 kts | 284° |
| 2026-05-07 14:05 | 44.39000 | 8.95784 | 1577 ft | 139 kts | 284° |
| 2026-05-07 14:05 | 44.39254 | 8.94480 | 1380 ft | 139 kts | 284° |
| 2026-05-07 14:05 | 44.39514 | 8.93179 | 1183 ft | 139 kts | 284° |
| 2026-05-07 14:05 | 44.39763 | 8.91871 | 972 ft | 140 kts | 282° |
| 2026-05-07 14:06 | 44.39972 | 8.90541 | 712 ft | 140 kts | 281° |
| 2026-05-07 14:06 | 44.40187 | 8.89250 | 519 ft | 135 kts | 284° |
| 2026-05-07 14:06 | 44.40437 | 8.87996 | 375 ft | 134 kts | 285° |
| 2026-05-07 14:06 | 44.40687 | 8.86737 | 228 ft | 136 kts | 284° |
| 2026-05-07 14:07 | 44.40940 | 8.85462 | 49 ft | 135 kts | 284° |
| 2026-05-07 14:07 | 44.41170 | 8.84300 | 22 ft | 106 kts | 286° |
| 2026-05-07 14:07 | 44.41312 | 8.83529 | 19 ft | 59 kts | 280° |
| 2026-05-07 14:07 | 44.41388 | 8.83223 | 21 ft | 17 kts | 296° |
| 2026-05-07 14:08 | 44.41465 | 8.83103 | 20 ft | 17 kts | 329° |
| 2026-05-07 14:08 | 44.41543 | 8.83162 | 19 ft | 15 kts | 85° |
| 2026-05-07 14:08 | 44.41520 | 8.83307 | 19 ft | 17 kts | 105° |
| 2026-05-07 14:08 | 44.41483 | 8.83495 | 19 ft | 23 kts | 105° |
| 2026-05-07 14:09 | 44.41435 | 8.83733 | 19 ft | 27 kts | 105° |
| 2026-05-07 14:09 | 44.41386 | 8.83988 | 19 ft | 28 kts | 105° |
| 2026-05-07 14:09 | 44.41341 | 8.84220 | 18 ft | 24 kts | 105° |
| 2026-05-07 14:09 | 44.41320 | 8.84326 | 19 ft | 11 kts | 105° |
| 2026-05-07 14:10 | 44.41330 | 8.84430 | 19 ft | 12 kts | 57° |
| 2026-05-07 14:10 | 44.41383 | 8.84532 | 19 ft | 14 kts | 51° |
| 2026-05-07 14:10 | 44.41418 | 8.84644 | 19 ft | 11 kts | 111° |
| 2026-05-07 14:10 | 44.41387 | 8.84764 | 19 ft | 15 kts | 105° |
| 2026-05-07 14:11 | 44.41364 | 8.84888 | 19 ft | 8 kts | 104° |
| 2026-05-07 14:11 | 44.41349 | 8.84969 | 19 ft | 8 kts | 104° |
| 2026-05-07 14:11 | 44.41373 | 8.85020 | 19 ft | 3 kts | 28° |
| 2026-05-07 14:11 | 44.41388 | 8.85027 | 19 ft | 2 kts | 17° |
| 2026-05-07 14:12 | 44.41402 | 8.85032 | 19 ft | 1 kts | 15° |
| 2026-05-07 14:12 | 44.41412 | 8.85036 | 19 ft | 0 kts | 15° |
| 2026-05-07 14:15 | 44.41380 | 8.85171 | 19 ft | 0 kts | 15° |
| 2026-05-07 14:16 | 44.41349 | 8.85290 | 19 ft | 0 kts | 15° |